sensor_id;sensor_type;location;lat;lon;timestamp;temperature;humidity
10662;DHT22;5379;51.034;7.006;2023-03-29T04:31:28;10.70;99.90
10662;DHT22;5379;51.034;7.006;2023-03-29T04:33:56;10.60;99.90
10662;DHT22;5379;51.034;7.006;2023-03-29T04:36:23;10.70;99.90
10662;DHT22;5379;51.034;7.006;2023-03-29T04:38:50;10.80;99.90
10662;DHT22;5379;51.034;7.006;2023-03-29T04:41:17;10.90;99.90
10662;DHT22;5379;51.034;7.006;2023-03-29T04:43:45;11.00;99.90
10662;DHT22;5379;51.034;7.006;2023-03-29T04:46:12;11.00;99.90
10662;DHT22;5379;51.034;7.006;2023-03-29T04:48:40;10.90;99.90
10662;DHT22;5379;51.034;7.006;2023-03-29T04:51:08;10.80;99.90
10662;DHT22;5379;51.034;7.006;2023-03-29T04:53:34;10.80;99.90
10662;DHT22;5379;51.034;7.006;2023-03-29T04:56:02;10.90;99.90
10662;DHT22;5379;51.034;7.006;2023-03-29T04:58:28;10.80;99.90
10662;DHT22;5379;51.034;7.006;2023-03-29T05:00:56;10.80;99.90
10662;DHT22;5379;51.034;7.006;2023-03-29T05:03:23;10.70;99.90
10662;DHT22;5379;51.034;7.006;2023-03-29T05:05:52;10.60;99.90
10662;DHT22;5379;51.034;7.006;2023-03-29T05:08:19;10.50;99.90
10662;DHT22;5379;51.034;7.006;2023-03-29T05:10:46;10.50;99.90
10662;DHT22;5379;51.034;7.006;2023-03-29T05:13:14;10.50;99.90
10662;DHT22;5379;51.034;7.006;2023-03-29T05:15:41;10.50;99.90
10662;DHT22;5379;51.034;7.006;2023-03-29T05:18:08;10.60;99.90
10662;DHT22;5379;51.034;7.006;2023-03-29T05:20:35;10.60;99.90
10662;DHT22;5379;51.034;7.006;2023-03-29T05:23:04;10.50;99.90
10662;DHT22;5379;51.034;7.006;2023-03-29T05:25:31;10.50;99.90
10662;DHT22;5379;51.034;7.006;2023-03-29T05:27:59;10.40;99.90
10662;DHT22;5379;51.034;7.006;2023-03-29T05:30:26;10.50;99.90
10662;DHT22;5379;51.034;7.006;2023-03-29T05:32:53;10.50;99.90
10662;DHT22;5379;51.034;7.006;2023-03-29T05:35:19;10.50;99.90
10662;DHT22;5379;51.034;7.006;2023-03-29T05:37:48;10.50;99.90
10662;DHT22;5379;51.034;7.006;2023-03-29T05:40:17;10.50;99.90
10662;DHT22;5379;51.034;7.006;2023-03-29T05:42:44;10.50;99.90
10662;DHT22;5379;51.034;7.006;2023-03-29T05:45:11;10.60;99.90
10662;DHT22;5379;51.034;7.006;2023-03-29T05:47:38;10.70;99.90
10662;DHT22;5379;51.034;7.006;2023-03-29T05:50:07;10.80;99.90
10662;DHT22;5379;51.034;7.006;2023-03-29T05:52:35;10.90;99.90
10662;DHT22;5379;51.034;7.006;2023-03-29T05:55:02;10.90;99.90
10662;DHT22;5379;51.034;7.006;2023-03-29T05:57:31;10.90;99.90
10662;DHT22;5379;51.034;7.006;2023-03-29T06:00:00;10.80;99.90
10662;DHT22;5379;51.034;7.006;2023-03-29T06:02:30;10.80;99.90
10662;DHT22;5379;51.034;7.006;2023-03-29T06:04:57;10.80;99.90
10662;DHT22;5379;51.034;7.006;2023-03-29T06:07:24;10.90;99.90
10662;DHT22;5379;51.034;7.006;2023-03-29T06:09:51;10.90;99.90
10662;DHT22;5379;51.034;7.006;2023-03-29T06:12:18;11.00;99.90
10662;DHT22;5379;51.034;7.006;2023-03-29T06:14:47;11.00;99.90
10662;DHT22;5379;51.034;7.006;2023-03-29T06:17:14;11.10;99.90
10662;DHT22;5379;51.034;7.006;2023-03-29T06:19:42;11.20;99.90
10662;DHT22;5379;51.034;7.006;2023-03-29T06:22:09;11.20;99.90
10662;DHT22;5379;51.034;7.006;2023-03-29T06:24:36;11.20;99.90
10662;DHT22;5379;51.034;7.006;2023-03-29T06:27:03;11.20;99.90
10662;DHT22;5379;51.034;7.006;2023-03-29T06:29:30;11.30;99.90
10662;DHT22;5379;51.034;7.006;2023-03-29T06:31:58;11.30;99.90
10662;DHT22;5379;51.034;7.006;2023-03-29T06:34:25;11.40;99.90
10662;DHT22;5379;51.034;7.006;2023-03-29T06:36:52;11.50;99.90
10662;DHT22;5379;51.034;7.006;2023-03-29T06:39:19;11.60;99.90
10662;DHT22;5379;51.034;7.006;2023-03-29T06:41:46;11.60;99.90
10662;DHT22;5379;51.034;7.006;2023-03-29T06:44:13;11.50;99.90
10662;DHT22;5379;51.034;7.006;2023-03-29T06:46:42;11.60;99.90
10662;DHT22;5379;51.034;7.006;2023-03-29T06:49:10;11.60;99.90
10662;DHT22;5379;51.034;7.006;2023-03-29T06:51:37;11.80;99.90
10662;DHT22;5379;51.034;7.006;2023-03-29T06:54:04;11.80;99.90
10662;DHT22;5379;51.034;7.006;2023-03-29T06:56:32;11.80;99.90
10662;DHT22;5379;51.034;7.006;2023-03-29T06:58:58;11.80;99.90
10662;DHT22;5379;51.034;7.006;2023-03-29T07:01:25;11.80;99.90
10662;DHT22;5379;51.034;7.006;2023-03-29T07:03:53;11.80;99.90
10662;DHT22;5379;51.034;7.006;2023-03-29T07:06:23;11.90;99.90
10662;DHT22;5379;51.034;7.006;2023-03-29T07:08:50;11.80;99.90
10662;DHT22;5379;51.034;7.006;2023-03-29T07:11:18;11.90;99.90
10662;DHT22;5379;51.034;7.006;2023-03-29T07:13:45;12.40;99.90
10662;DHT22;5379;51.034;7.006;2023-03-29T07:16:13;12.00;99.90
10662;DHT22;5379;51.034;7.006;2023-03-29T07:18:41;12.10;99.90
10662;DHT22;5379;51.034;7.006;2023-03-29T07:21:09;12.20;99.90
10662;DHT22;5379;51.034;7.006;2023-03-29T07:23:38;12.20;99.90
10662;DHT22;5379;51.034;7.006;2023-03-29T07:26:06;12.30;99.90
10662;DHT22;5379;51.034;7.006;2023-03-29T07:28:33;12.30;99.90
10662;DHT22;5379;51.034;7.006;2023-03-29T07:31:02;12.40;99.90
10662;DHT22;5379;51.034;7.006;2023-03-29T07:33:32;12.30;99.90
10662;DHT22;5379;51.034;7.006;2023-03-29T07:35:59;12.30;99.90
10662;DHT22;5379;51.034;7.006;2023-03-29T07:38:26;12.30;99.90
10662;DHT22;5379;51.034;7.006;2023-03-29T07:40:55;12.30;99.90
10662;DHT22;5379;51.034;7.006;2023-03-29T07:43:22;12.40;99.90
10662;DHT22;5379;51.034;7.006;2023-03-29T07:45:49;12.30;99.90
10662;DHT22;5379;51.034;7.006;2023-03-29T07:48:17;12.40;99.90
10662;DHT22;5379;51.034;7.006;2023-03-29T07:50:45;12.30;99.90
10662;DHT22;5379;51.034;7.006;2023-03-29T07:53:11;12.20;99.90
10662;DHT22;5379;51.034;7.006;2023-03-29T07:55:39;12.30;99.90
10662;DHT22;5379;51.034;7.006;2023-03-29T07:58:12;12.30;99.90
10662;DHT22;5379;51.034;7.006;2023-03-29T08:00:40;12.50;99.90
10662;DHT22;5379;51.034;7.006;2023-03-29T08:03:10;12.50;99.90
10662;DHT22;5379;51.034;7.006;2023-03-29T08:05:38;12.70;99.90
10662;DHT22;5379;51.034;7.006;2023-03-29T08:08:05;12.70;99.90
10662;DHT22;5379;51.034;7.006;2023-03-29T08:10:32;12.60;99.90
10662;DHT22;5379;51.034;7.006;2023-03-29T08:13:02;12.60;99.90
10662;DHT22;5379;51.034;7.006;2023-03-29T08:15:32;12.60;99.90
10662;DHT22;5379;51.034;7.006;2023-03-29T08:17:59;12.80;99.90
10662;DHT22;5379;51.034;7.006;2023-03-29T08:20:26;12.70;99.90
10662;DHT22;5379;51.034;7.006;2023-03-29T08:22:53;12.70;99.90
10662;DHT22;5379;51.034;7.006;2023-03-29T08:25:20;12.80;99.90
10662;DHT22;5379;51.034;7.006;2023-03-29T08:27:47;12.90;99.90
10662;DHT22;5379;51.034;7.006;2023-03-29T08:30:14;13.10;99.90
10662;DHT22;5379;51.034;7.006;2023-03-29T08:32:43;13.50;99.90
10662;DHT22;5379;51.034;7.006;2023-03-29T08:35:10;13.70;99.90
10662;DHT22;5379;51.034;7.006;2023-03-29T08:37:37;13.80;99.90
10662;DHT22;5379;51.034;7.006;2023-03-29T08:40:05;13.90;99.90
10662;DHT22;5379;51.034;7.006;2023-03-29T08:42:52;13.80;99.90
10662;DHT22;5379;51.034;7.006;2023-03-29T08:45:28;13.70;99.90
10662;DHT22;5379;51.034;7.006;2023-03-29T08:48:05;13.70;99.90
10662;DHT22;5379;51.034;7.006;2023-03-29T08:50:38;13.60;99.90
10662;DHT22;5379;51.034;7.006;2023-03-29T08:53:09;13.60;99.90
10662;DHT22;5379;51.034;7.006;2023-03-29T08:55:40;13.70;99.90
10662;DHT22;5379;51.034;7.006;2023-03-29T08:58:12;14.60;99.90
10662;DHT22;5379;51.034;7.006;2023-03-29T09:00:43;15.30;99.90
10662;DHT22;5379;51.034;7.006;2023-03-29T09:03:18;15.40;99.50
10662;DHT22;5379;51.034;7.006;2023-03-29T09:05:47;16.10;99.90
10662;DHT22;5379;51.034;7.006;2023-03-29T09:08:16;16.40;98.20
10662;DHT22;5379;51.034;7.006;2023-03-29T09:10:47;16.50;98.40
10662;DHT22;5379;51.034;7.006;2023-03-29T09:13:24;16.80;99.80
10662;DHT22;5379;51.034;7.006;2023-03-29T09:16:02;16.70;97.10
10662;DHT22;5379;51.034;7.006;2023-03-29T09:18:40;17.00;98.10
10662;DHT22;5379;51.034;7.006;2023-03-29T09:21:16;17.00;96.50
10662;DHT22;5379;51.034;7.006;2023-03-29T09:23:56;16.80;97.20
10662;DHT22;5379;51.034;7.006;2023-03-29T09:26:31;16.80;98.00
10662;DHT22;5379;51.034;7.006;2023-03-29T09:29:07;16.70;97.60
10662;DHT22;5379;51.034;7.006;2023-03-29T09:31:42;16.60;98.20
10662;DHT22;5379;51.034;7.006;2023-03-29T09:34:13;17.00;98.80
10662;DHT22;5379;51.034;7.006;2023-03-29T09:36:46;17.20;97.10
10662;DHT22;5379;51.034;7.006;2023-03-29T09:39:16;17.70;98.20
10662;DHT22;5379;51.034;7.006;2023-03-29T09:41:46;17.70;96.60
10662;DHT22;5379;51.034;7.006;2023-03-29T09:44:16;17.90;96.60
10662;DHT22;5379;51.034;7.006;2023-03-29T09:46:47;18.10;97.70
10662;DHT22;5379;51.034;7.006;2023-03-29T09:49:20;17.90;96.20
10662;DHT22;5379;51.034;7.006;2023-03-29T09:51:48;17.70;97.30
10662;DHT22;5379;51.034;7.006;2023-03-29T09:54:16;17.80;96.90
10662;DHT22;5379;51.034;7.006;2023-03-29T09:56:43;17.90;97.40
10662;DHT22;5379;51.034;7.006;2023-03-29T09:59:10;18.00;97.20
10662;DHT22;5379;51.034;7.006;2023-03-29T10:01:39;18.10;96.70
10662;DHT22;5379;51.034;7.006;2023-03-29T10:04:08;18.00;96.20
10662;DHT22;5379;51.034;7.006;2023-03-29T10:06:41;17.80;96.80
10662;DHT22;5379;51.034;7.006;2023-03-29T10:09:15;17.80;97.40
10662;DHT22;5379;51.034;7.006;2023-03-29T10:11:46;17.60;96.60
10662;DHT22;5379;51.034;7.006;2023-03-29T10:14:16;17.70;98.10
10662;DHT22;5379;51.034;7.006;2023-03-29T10:16:44;17.50;97.00
10662;DHT22;5379;51.034;7.006;2023-03-29T10:19:20;16.90;96.50
10662;DHT22;5379;51.034;7.006;2023-03-29T10:21:50;15.90;98.20
10662;DHT22;5379;51.034;7.006;2023-03-29T10:24:18;15.50;99.40
10662;DHT22;5379;51.034;7.006;2023-03-29T10:26:46;15.20;99.60
10662;DHT22;5379;51.034;7.006;2023-03-29T10:29:14;15.10;99.80
10662;DHT22;5379;51.034;7.006;2023-03-29T10:31:41;15.10;99.90
10662;DHT22;5379;51.034;7.006;2023-03-29T10:34:11;15.10;99.90
10662;DHT22;5379;51.034;7.006;2023-03-29T10:36:41;15.20;99.90
10662;DHT22;5379;51.034;7.006;2023-03-29T10:39:13;15.30;99.90
10662;DHT22;5379;51.034;7.006;2023-03-29T10:41:41;15.30;99.80
10662;DHT22;5379;51.034;7.006;2023-03-29T10:44:24;15.30;99.90
10662;DHT22;5379;51.034;7.006;2023-03-29T10:46:52;15.30;99.90
10662;DHT22;5379;51.034;7.006;2023-03-29T10:49:21;15.30;99.90
10662;DHT22;5379;51.034;7.006;2023-03-29T10:51:51;15.30;99.90
10662;DHT22;5379;51.034;7.006;2023-03-29T10:54:22;15.50;99.90
10662;DHT22;5379;51.034;7.006;2023-03-29T10:56:53;15.50;99.90
10662;DHT22;5379;51.034;7.006;2023-03-29T10:59:28;15.70;99.90
10662;DHT22;5379;51.034;7.006;2023-03-29T11:05:17;16.20;99.90
10662;DHT22;5379;51.034;7.006;2023-03-29T11:07:54;16.30;99.90
10662;DHT22;5379;51.034;7.006;2023-03-29T11:10:38;16.50;99.90
10662;DHT22;5379;51.034;7.006;2023-03-29T11:13:14;16.30;99.90
10662;DHT22;5379;51.034;7.006;2023-03-29T11:15:56;16.50;99.90
10662;DHT22;5379;51.034;7.006;2023-03-29T11:18:43;16.70;99.90
10662;DHT22;5379;51.034;7.006;2023-03-29T11:21:21;16.80;99.90
10662;DHT22;5379;51.034;7.006;2023-03-29T11:23:59;16.80;99.70
10662;DHT22;5379;51.034;7.006;2023-03-29T11:26:37;17.10;99.40
10662;DHT22;5379;51.034;7.006;2023-03-29T11:29:11;17.10;99.80
10662;DHT22;5379;51.034;7.006;2023-03-29T11:31:46;17.20;99.90
10662;DHT22;5379;51.034;7.006;2023-03-29T11:34:23;17.50;99.70
10662;DHT22;5379;51.034;7.006;2023-03-29T11:36:54;17.50;99.10
10662;DHT22;5379;51.034;7.006;2023-03-29T11:39:29;17.50;99.70
10662;DHT22;5379;51.034;7.006;2023-03-29T11:42:06;17.50;99.10
10662;DHT22;5379;51.034;7.006;2023-03-29T11:44:35;17.50;99.60
10662;DHT22;5379;51.034;7.006;2023-03-29T11:47:07;17.60;99.40
10662;DHT22;5379;51.034;7.006;2023-03-29T11:49:39;17.80;99.50
10662;DHT22;5379;51.034;7.006;2023-03-29T11:52:12;17.80;99.60
10662;DHT22;5379;51.034;7.006;2023-03-29T11:54:43;17.80;99.70
10662;DHT22;5379;51.034;7.006;2023-03-29T11:57:20;17.80;99.50
10662;DHT22;5379;51.034;7.006;2023-03-29T11:59:53;17.90;99.90
10662;DHT22;5379;51.034;7.006;2023-03-29T12:02:27;18.10;99.60
10662;DHT22;5379;51.034;7.006;2023-03-29T12:04:58;18.60;98.60
10662;DHT22;5379;51.034;7.006;2023-03-29T12:07:31;19.00;98.40
10662;DHT22;5379;51.034;7.006;2023-03-29T12:10:07;19.40;97.70
10662;DHT22;5379;51.034;7.006;2023-03-29T12:12:42;19.40;97.50
10662;DHT22;5379;51.034;7.006;2023-03-29T12:15:15;19.60;97.00
10662;DHT22;5379;51.034;7.006;2023-03-29T12:17:48;19.80;97.20
10662;DHT22;5379;51.034;7.006;2023-03-29T12:20:20;19.90;96.80
10662;DHT22;5379;51.034;7.006;2023-03-29T12:22:53;20.00;96.90
10662;DHT22;5379;51.034;7.006;2023-03-29T12:25:25;20.10;96.80
10662;DHT22;5379;51.034;7.006;2023-03-29T12:28:05;20.20;96.40
10662;DHT22;5379;51.034;7.006;2023-03-29T12:30:45;20.10;96.10
10662;DHT22;5379;51.034;7.006;2023-03-29T12:33:31;20.20;96.30
10662;DHT22;5379;51.034;7.006;2023-03-29T12:36:12;20.20;96.50
10662;DHT22;5379;51.034;7.006;2023-03-29T12:38:41;20.20;96.70
10662;DHT22;5379;51.034;7.006;2023-03-29T12:41:14;20.00;97.20
10662;DHT22;5379;51.034;7.006;2023-03-29T12:43:43;20.20;97.40
10662;DHT22;5379;51.034;7.006;2023-03-29T12:46:15;20.30;97.00
10662;DHT22;5379;51.034;7.006;2023-03-29T12:48:50;20.40;96.90
10662;DHT22;5379;51.034;7.006;2023-03-29T12:51:20;20.50;96.50
10662;DHT22;5379;51.034;7.006;2023-03-29T12:53:49;20.50;96.60
10662;DHT22;5379;51.034;7.006;2023-03-29T12:56:19;20.50;96.50
10662;DHT22;5379;51.034;7.006;2023-03-29T12:59:17;20.60;96.70
10662;DHT22;5379;51.034;7.006;2023-03-29T13:01:58;20.60;96.80
10662;DHT22;5379;51.034;7.006;2023-03-29T13:04:36;20.50;96.50
10662;DHT22;5379;51.034;7.006;2023-03-29T13:07:04;20.60;96.80
10662;DHT22;5379;51.034;7.006;2023-03-29T13:09:33;20.60;96.50
10662;DHT22;5379;51.034;7.006;2023-03-29T13:12:21;20.60;96.30
10662;DHT22;5379;51.034;7.006;2023-03-29T13:14:52;20.40;96.40
10662;DHT22;5379;51.034;7.006;2023-03-29T13:17:25;20.60;96.40
10662;DHT22;5379;51.034;7.006;2023-03-29T13:22:53;20.20;97.20
10662;DHT22;5379;51.034;7.006;2023-03-29T13:25:36;20.20;97.20
10662;DHT22;5379;51.034;7.006;2023-03-29T13:28:12;20.20;97.40
10662;DHT22;5379;51.034;7.006;2023-03-29T13:30:51;20.20;97.20
10662;DHT22;5379;51.034;7.006;2023-03-29T13:33:43;20.20;97.50
10662;DHT22;5379;51.034;7.006;2023-03-29T13:36:16;20.40;96.80
10662;DHT22;5379;51.034;7.006;2023-03-29T13:38:50;20.20;96.70
10662;DHT22;5379;51.034;7.006;2023-03-29T13:41:31;20.40;96.70
10662;DHT22;5379;51.034;7.006;2023-03-29T13:44:22;20.30;97.40
10662;DHT22;5379;51.034;7.006;2023-03-29T13:47:10;20.30;97.10
10662;DHT22;5379;51.034;7.006;2023-03-29T13:49:42;20.30;97.60
10662;DHT22;5379;51.034;7.006;2023-03-29T13:52:13;20.40;96.80
10662;DHT22;5379;51.034;7.006;2023-03-29T13:54:49;20.30;97.50
10662;DHT22;5379;51.034;7.006;2023-03-29T13:57:22;20.20;97.80
10662;DHT22;5379;51.034;7.006;2023-03-29T13:59:56;20.30;97.20
10662;DHT22;5379;51.034;7.006;2023-03-29T14:02:31;20.40;97.20
10662;DHT22;5379;51.034;7.006;2023-03-29T14:05:10;20.40;97.40
10662;DHT22;5379;51.034;7.006;2023-03-29T14:07:42;20.30;97.50
10662;DHT22;5379;51.034;7.006;2023-03-29T14:10:13;20.30;97.50
10662;DHT22;5379;51.034;7.006;2023-03-29T14:12:41;20.30;97.00
10662;DHT22;5379;51.034;7.006;2023-03-29T14:15:20;20.30;96.90
10662;DHT22;5379;51.034;7.006;2023-03-29T14:17:52;20.30;97.40
10662;DHT22;5379;51.034;7.006;2023-03-29T14:20:19;20.40;97.50
10662;DHT22;5379;51.034;7.006;2023-03-29T14:22:46;20.50;97.40
10662;DHT22;5379;51.034;7.006;2023-03-29T14:25:16;20.60;96.80
10662;DHT22;5379;51.034;7.006;2023-03-29T14:27:43;20.60;96.80
10662;DHT22;5379;51.034;7.006;2023-03-29T14:30:19;20.50;97.20
10662;DHT22;5379;51.034;7.006;2023-03-29T14:32:49;20.40;97.60
10662;DHT22;5379;51.034;7.006;2023-03-29T14:35:17;20.60;97.10
10662;DHT22;5379;51.034;7.006;2023-03-29T14:37:44;20.60;96.50
10662;DHT22;5379;51.034;7.006;2023-03-29T14:40:16;20.70;96.60
10662;DHT22;5379;51.034;7.006;2023-03-29T14:42:44;20.60;96.70
10662;DHT22;5379;51.034;7.006;2023-03-29T14:45:51;20.70;96.60
10662;DHT22;5379;51.034;7.006;2023-03-29T14:48:20;20.30;97.60
10662;DHT22;5379;51.034;7.006;2023-03-29T14:51:14;20.30;97.90
10662;DHT22;5379;51.034;7.006;2023-03-29T14:53:41;20.30;97.90
10662;DHT22;5379;51.034;7.006;2023-03-29T14:56:10;20.40;97.60
10662;DHT22;5379;51.034;7.006;2023-03-29T14:58:44;20.30;98.00
10662;DHT22;5379;51.034;7.006;2023-03-29T15:01:25;20.40;97.90
10662;DHT22;5379;51.034;7.006;2023-03-29T15:08:01;20.40;97.90
10662;DHT22;5379;51.034;7.006;2023-03-29T15:10:32;19.20;97.50
10662;DHT22;5379;51.034;7.006;2023-03-29T15:13:00;20.20;98.10
10662;DHT22;5379;51.034;7.006;2023-03-29T15:15:29;20.00;98.30
10662;DHT22;5379;51.034;7.006;2023-03-29T15:17:57;19.90;98.60
10662;DHT22;5379;51.034;7.006;2023-03-29T15:20:26;20.10;98.50
10662;DHT22;5379;51.034;7.006;2023-03-29T15:22:57;20.00;98.40
10662;DHT22;5379;51.034;7.006;2023-03-29T15:25:30;19.90;98.50
10662;DHT22;5379;51.034;7.006;2023-03-29T15:27:58;19.80;98.80
10662;DHT22;5379;51.034;7.006;2023-03-29T15:30:32;19.90;98.70
10662;DHT22;5379;51.034;7.006;2023-03-29T15:33:18;19.80;98.30
10662;DHT22;5379;51.034;7.006;2023-03-29T15:35:48;20.00;98.20
10662;DHT22;5379;51.034;7.006;2023-03-29T15:38:16;19.90;98.10
10662;DHT22;5379;51.034;7.006;2023-03-29T15:40:45;19.80;98.70
10662;DHT22;5379;51.034;7.006;2023-03-29T15:43:13;20.00;98.50
10662;DHT22;5379;51.034;7.006;2023-03-29T15:45:40;20.00;98.60
10662;DHT22;5379;51.034;7.006;2023-03-29T15:48:14;20.00;98.80
10662;DHT22;5379;51.034;7.006;2023-03-29T15:50:43;19.90;98.30
10662;DHT22;5379;51.034;7.006;2023-03-29T15:53:10;19.80;98.50
10662;DHT22;5379;51.034;7.006;2023-03-29T15:55:39;19.80;98.90
10662;DHT22;5379;51.034;7.006;2023-03-29T15:58:12;19.80;99.00
10662;DHT22;5379;51.034;7.006;2023-03-29T16:00:42;19.90;98.40
10662;DHT22;5379;51.034;7.006;2023-03-29T16:03:12;19.90;98.50
10662;DHT22;5379;51.034;7.006;2023-03-29T16:05:41;19.90;98.50
10662;DHT22;5379;51.034;7.006;2023-03-29T16:08:09;19.90;98.90
10662;DHT22;5379;51.034;7.006;2023-03-29T16:10:37;20.00;98.70
10662;DHT22;5379;51.034;7.006;2023-03-29T16:13:04;19.90;98.50
10662;DHT22;5379;51.034;7.006;2023-03-29T16:15:34;19.80;98.50
10662;DHT22;5379;51.034;7.006;2023-03-29T16:18:02;19.70;98.70
10662;DHT22;5379;51.034;7.006;2023-03-29T16:20:29;19.80;99.00
10662;DHT22;5379;51.034;7.006;2023-03-29T16:22:56;19.90;98.80
10662;DHT22;5379;51.034;7.006;2023-03-29T16:25:23;19.90;98.80
10662;DHT22;5379;51.034;7.006;2023-03-29T16:27:50;20.00;98.00
10662;DHT22;5379;51.034;7.006;2023-03-29T16:30:18;20.20;98.60
10662;DHT22;5379;51.034;7.006;2023-03-29T16:32:46;20.10;98.40
10662;DHT22;5379;51.034;7.006;2023-03-29T16:35:18;20.10;98.20
10662;DHT22;5379;51.034;7.006;2023-03-29T16:37:47;20.20;98.90
10662;DHT22;5379;51.034;7.006;2023-03-29T16:40:14;20.20;98.30
10662;DHT22;5379;51.034;7.006;2023-03-29T16:42:41;20.10;99.20
10662;DHT22;5379;51.034;7.006;2023-03-29T16:45:11;20.00;98.70
10662;DHT22;5379;51.034;7.006;2023-03-29T16:47:38;20.10;99.30
10662;DHT22;5379;51.034;7.006;2023-03-29T16:50:10;20.10;99.30
10662;DHT22;5379;51.034;7.006;2023-03-29T16:52:37;20.20;98.90
10662;DHT22;5379;51.034;7.006;2023-03-29T16:55:05;20.20;99.50
10662;DHT22;5379;51.034;7.006;2023-03-29T16:57:33;20.00;99.70
10662;DHT22;5379;51.034;7.006;2023-03-29T17:00:00;20.10;99.60
10662;DHT22;5379;51.034;7.006;2023-03-29T17:02:29;20.10;99.90
10662;DHT22;5379;51.034;7.006;2023-03-29T17:04:56;20.10;99.80
10662;DHT22;5379;51.034;7.006;2023-03-29T17:07:25;20.10;99.70
10662;DHT22;5379;51.034;7.006;2023-03-29T17:09:52;20.10;99.90
10662;DHT22;5379;51.034;7.006;2023-03-29T17:12:18;20.10;99.90
10662;DHT22;5379;51.034;7.006;2023-03-29T17:14:46;20.00;99.90
10662;DHT22;5379;51.034;7.006;2023-03-29T17:17:13;19.80;99.90
10662;DHT22;5379;51.034;7.006;2023-03-29T17:19:40;19.80;99.90
10662;DHT22;5379;51.034;7.006;2023-03-29T17:22:07;19.70;99.90
10662;DHT22;5379;51.034;7.006;2023-03-29T17:24:35;19.80;99.90
10662;DHT22;5379;51.034;7.006;2023-03-29T17:27:02;19.80;99.90
10662;DHT22;5379;51.034;7.006;2023-03-29T17:29:29;19.90;99.90
10662;DHT22;5379;51.034;7.006;2023-03-29T17:31:56;19.90;99.90
10662;DHT22;5379;51.034;7.006;2023-03-29T17:34:23;20.00;99.90
10662;DHT22;5379;51.034;7.006;2023-03-29T17:36:53;20.40;99.70
10662;DHT22;5379;51.034;7.006;2023-03-29T17:39:20;20.70;98.70
10662;DHT22;5379;51.034;7.006;2023-03-29T17:41:51;20.40;99.80
10662;DHT22;5379;51.034;7.006;2023-03-29T17:44:18;20.20;99.90
10662;DHT22;5379;51.034;7.006;2023-03-29T17:46:45;20.10;99.90
10662;DHT22;5379;51.034;7.006;2023-03-29T17:49:13;20.00;99.90
10662;DHT22;5379;51.034;7.006;2023-03-29T17:51:40;19.90;99.90
10662;DHT22;5379;51.034;7.006;2023-03-29T17:54:07;19.90;99.90
10662;DHT22;5379;51.034;7.006;2023-03-29T17:56:34;19.90;99.90
10662;DHT22;5379;51.034;7.006;2023-03-29T17:59:02;19.90;99.90
10662;DHT22;5379;51.034;7.006;2023-03-29T18:01:29;19.90;99.90
10662;DHT22;5379;51.034;7.006;2023-03-29T18:03:56;19.80;99.90
10662;DHT22;5379;51.034;7.006;2023-03-29T18:06:23;19.80;99.90
10662;DHT22;5379;51.034;7.006;2023-03-29T18:08:50;19.80;99.90
10662;DHT22;5379;51.034;7.006;2023-03-29T18:11:19;19.70;99.90
10662;DHT22;5379;51.034;7.006;2023-03-29T18:13:48;19.50;99.90
10662;DHT22;5379;51.034;7.006;2023-03-29T18:16:17;19.40;99.90
10662;DHT22;5379;51.034;7.006;2023-03-29T18:18:45;19.40;99.90
10662;DHT22;5379;51.034;7.006;2023-03-29T18:21:13;19.40;99.90
10662;DHT22;5379;51.034;7.006;2023-03-29T18:23:43;19.40;99.90
10662;DHT22;5379;51.034;7.006;2023-03-29T18:26:11;19.40;99.90
10662;DHT22;5379;51.034;7.006;2023-03-29T18:28:39;19.30;99.90
10662;DHT22;5379;51.034;7.006;2023-03-29T18:31:06;19.50;99.90
10662;DHT22;5379;51.034;7.006;2023-03-29T18:33:35;19.40;99.90
10662;DHT22;5379;51.034;7.006;2023-03-29T18:36:03;19.40;99.90
10662;DHT22;5379;51.034;7.006;2023-03-29T18:38:31;19.40;99.90
10662;DHT22;5379;51.034;7.006;2023-03-29T18:41:00;19.30;99.90
10662;DHT22;5379;51.034;7.006;2023-03-29T18:43:28;19.20;99.90
10662;DHT22;5379;51.034;7.006;2023-03-29T18:45:55;19.20;99.90
10662;DHT22;5379;51.034;7.006;2023-03-29T18:48:22;19.20;99.90
10662;DHT22;5379;51.034;7.006;2023-03-29T18:50:51;19.30;99.90
10662;DHT22;5379;51.034;7.006;2023-03-29T18:53:18;19.20;99.90
10662;DHT22;5379;51.034;7.006;2023-03-29T18:55:45;19.10;99.90
10662;DHT22;5379;51.034;7.006;2023-03-29T18:58:13;19.10;99.90
10662;DHT22;5379;51.034;7.006;2023-03-29T19:00:41;19.10;99.90
10662;DHT22;5379;51.034;7.006;2023-03-29T19:03:08;19.20;99.90
10662;DHT22;5379;51.034;7.006;2023-03-29T19:05:36;19.20;99.90
10662;DHT22;5379;51.034;7.006;2023-03-29T19:08:05;19.10;99.90
10662;DHT22;5379;51.034;7.006;2023-03-29T19:10:34;18.90;99.90
10662;DHT22;5379;51.034;7.006;2023-03-29T19:13:01;18.90;99.90
10662;DHT22;5379;51.034;7.006;2023-03-29T19:15:28;18.90;99.90
10662;DHT22;5379;51.034;7.006;2023-03-29T19:17:55;19.00;99.90
10662;DHT22;5379;51.034;7.006;2023-03-29T19:20:22;19.00;99.90
10662;DHT22;5379;51.034;7.006;2023-03-29T19:22:50;19.10;99.90
10662;DHT22;5379;51.034;7.006;2023-03-29T19:25:18;19.00;99.90
10662;DHT22;5379;51.034;7.006;2023-03-29T19:27:46;19.00;99.90
10662;DHT22;5379;51.034;7.006;2023-03-29T19:30:13;19.10;99.90
10662;DHT22;5379;51.034;7.006;2023-03-29T19:32:41;19.00;99.90
10662;DHT22;5379;51.034;7.006;2023-03-29T19:35:08;19.00;99.90
10662;DHT22;5379;51.034;7.006;2023-03-29T19:37:37;19.00;99.90
10662;DHT22;5379;51.034;7.006;2023-03-29T19:40:05;19.00;99.90
10662;DHT22;5379;51.034;7.006;2023-03-29T19:42:35;18.80;99.90
10662;DHT22;5379;51.034;7.006;2023-03-29T19:45:03;18.80;99.90
10662;DHT22;5379;51.034;7.006;2023-03-29T19:47:30;18.80;99.90
10662;DHT22;5379;51.034;7.006;2023-03-29T19:49:57;18.80;99.90
10662;DHT22;5379;51.034;7.006;2023-03-29T19:52:24;18.90;99.90
10662;DHT22;5379;51.034;7.006;2023-03-29T19:54:52;18.90;99.90
10662;DHT22;5379;51.034;7.006;2023-03-29T19:57:19;18.90;99.90
10662;DHT22;5379;51.034;7.006;2023-03-29T19:59:48;18.80;99.90
10662;DHT22;5379;51.034;7.006;2023-03-29T20:02:15;18.80;99.90
10662;DHT22;5379;51.034;7.006;2023-03-29T20:04:42;18.80;99.90
10662;DHT22;5379;51.034;7.006;2023-03-29T20:07:10;18.70;99.90
10662;DHT22;5379;51.034;7.006;2023-03-29T20:09:37;19.40;99.90
10662;DHT22;5379;51.034;7.006;2023-03-29T20:12:04;19.40;99.90
10662;DHT22;5379;51.034;7.006;2023-03-29T20:14:31;19.30;99.90
10662;DHT22;5379;51.034;7.006;2023-03-29T20:17:00;19.10;99.90
10662;DHT22;5379;51.034;7.006;2023-03-29T20:19:28;19.00;99.90
10662;DHT22;5379;51.034;7.006;2023-03-29T20:21:54;18.90;99.90
10662;DHT22;5379;51.034;7.006;2023-03-29T20:24:22;18.70;99.90
10662;DHT22;5379;51.034;7.006;2023-03-29T20:26:49;18.60;99.90
10662;DHT22;5379;51.034;7.006;2023-03-29T20:29:16;18.60;99.90
10662;DHT22;5379;51.034;7.006;2023-03-29T20:31:43;18.60;99.90
10662;DHT22;5379;51.034;7.006;2023-03-29T20:34:11;18.60;99.90
10662;DHT22;5379;51.034;7.006;2023-03-29T20:36:39;18.50;99.90
10662;DHT22;5379;51.034;7.006;2023-03-29T20:39:06;18.50;99.90
10662;DHT22;5379;51.034;7.006;2023-03-29T20:41:33;18.40;99.90
10662;DHT22;5379;51.034;7.006;2023-03-29T20:44:03;18.30;99.90